sensor_id;sensor_type;location;lat;lon;timestamp;P1;durP1;ratioP1;P2;durP2;ratioP2
76699;SDS011;65628;44.498;0.166;2023-05-07T00:05:26;9.13;;;2.83;;
76699;SDS011;65628;44.498;0.166;2023-05-07T00:10:59;10.27;;;3.23;;
76699;SDS011;65628;44.498;0.166;2023-05-07T00:16:32;12.13;;;2.97;;
76699;SDS011;65628;44.498;0.166;2023-05-07T00:22:04;11.87;;;2.97;;
76699;SDS011;65628;44.498;0.166;2023-05-07T00:27:38;9.07;;;2.70;;
76699;SDS011;65628;44.498;0.166;2023-05-07T00:33:11;9.73;;;3.10;;
76699;SDS011;65628;44.498;0.166;2023-05-07T00:38:44;15.33;;;3.57;;
76699;SDS011;65628;44.498;0.166;2023-05-07T00:55:24;11.20;;;2.80;;
76699;SDS011;65628;44.498;0.166;2023-05-07T01:00:57;14.70;;;4.37;;
76699;SDS011;65628;44.498;0.166;2023-05-07T01:06:30;15.07;;;3.53;;
76699;SDS011;65628;44.498;0.166;2023-05-07T01:12:03;11.87;;;3.10;;
76699;SDS011;65628;44.498;0.166;2023-05-07T01:17:36;9.97;;;3.17;;
76699;SDS011;65628;44.498;0.166;2023-05-07T01:23:08;13.37;;;3.47;;
76699;SDS011;65628;44.498;0.166;2023-05-07T01:28:40;9.40;;;3.53;;
76699;SDS011;65628;44.498;0.166;2023-05-07T01:34:13;10.10;;;3.30;;
76699;SDS011;65628;44.498;0.166;2023-05-07T01:39:46;12.73;;;4.67;;
76699;SDS011;65628;44.498;0.166;2023-05-07T01:45:18;12.43;;;3.77;;
76699;SDS011;65628;44.498;0.166;2023-05-07T02:13:02;10.90;;;3.90;;
76699;SDS011;65628;44.498;0.166;2023-05-07T02:18:34;12.37;;;3.53;;
76699;SDS011;65628;44.498;0.166;2023-05-07T02:24:06;9.40;;;3.03;;
76699;SDS011;65628;44.498;0.166;2023-05-07T02:29:37;8.80;;;3.20;;
76699;SDS011;65628;44.498;0.166;2023-05-07T02:35:10;13.50;;;3.23;;
76699;SDS011;65628;44.498;0.166;2023-05-07T02:40:43;11.40;;;3.33;;
76699;SDS011;65628;44.498;0.166;2023-05-07T02:46:16;12.20;;;3.33;;
76699;SDS011;65628;44.498;0.166;2023-05-07T02:51:48;11.13;;;3.53;;
76699;SDS011;65628;44.498;0.166;2023-05-07T02:57:22;15.40;;;4.60;;
76699;SDS011;65628;44.498;0.166;2023-05-07T03:02:55;17.03;;;3.90;;
76699;SDS011;65628;44.498;0.166;2023-05-07T03:08:28;12.50;;;3.90;;
76699;SDS011;65628;44.498;0.166;2023-05-07T03:14:00;17.27;;;3.87;;
76699;SDS011;65628;44.498;0.166;2023-05-07T03:19:31;12.77;;;3.60;;
76699;SDS011;65628;44.498;0.166;2023-05-07T03:25:06;14.90;;;3.47;;
76699;SDS011;65628;44.498;0.166;2023-05-07T03:30:38;11.83;;;4.33;;
76699;SDS011;65628;44.498;0.166;2023-05-07T03:36:12;16.13;;;3.93;;
76699;SDS011;65628;44.498;0.166;2023-05-07T03:41:45;12.70;;;3.90;;
76699;SDS011;65628;44.498;0.166;2023-05-07T03:47:18;13.77;;;4.00;;
76699;SDS011;65628;44.498;0.166;2023-05-07T03:52:51;13.20;;;3.60;;
76699;SDS011;65628;44.498;0.166;2023-05-07T03:58:24;16.40;;;5.40;;
76699;SDS011;65628;44.498;0.166;2023-05-07T04:03:58;8.00;;;3.17;;
76699;SDS011;65628;44.498;0.166;2023-05-07T04:09:31;15.23;;;2.87;;
76699;SDS011;65628;44.498;0.166;2023-05-07T04:15:04;9.93;;;3.27;;
76699;SDS011;65628;44.498;0.166;2023-05-07T04:20:38;13.90;;;3.67;;
76699;SDS011;65628;44.498;0.166;2023-05-07T04:26:11;9.57;;;3.37;;
76699;SDS011;65628;44.498;0.166;2023-05-07T04:31:44;12.80;;;3.97;;
76699;SDS011;65628;44.498;0.166;2023-05-07T04:37:15;11.20;;;3.80;;
76699;SDS011;65628;44.498;0.166;2023-05-07T04:42:49;11.83;;;4.10;;
76699;SDS011;65628;44.498;0.166;2023-05-07T04:48:22;18.43;;;4.50;;
76699;SDS011;65628;44.498;0.166;2023-05-07T04:53:55;14.30;;;4.10;;
76699;SDS011;65628;44.498;0.166;2023-05-07T04:59:28;13.77;;;3.93;;
76699;SDS011;65628;44.498;0.166;2023-05-07T05:05:02;12.63;;;3.90;;
76699;SDS011;65628;44.498;0.166;2023-05-07T05:10:33;10.20;;;3.33;;
76699;SDS011;65628;44.498;0.166;2023-05-07T05:16:06;11.70;;;3.67;;
76699;SDS011;65628;44.498;0.166;2023-05-07T05:21:38;13.20;;;3.60;;
76699;SDS011;65628;44.498;0.166;2023-05-07T05:27:12;14.47;;;3.57;;
76699;SDS011;65628;44.498;0.166;2023-05-07T05:32:43;16.03;;;5.33;;
76699;SDS011;65628;44.498;0.166;2023-05-07T05:38:16;13.50;;;4.20;;
76699;SDS011;65628;44.498;0.166;2023-05-07T05:43:49;13.50;;;4.57;;
76699;SDS011;65628;44.498;0.166;2023-05-07T05:49:22;16.77;;;4.17;;
76699;SDS011;65628;44.498;0.166;2023-05-07T05:54:54;18.97;;;5.10;;
76699;SDS011;65628;44.498;0.166;2023-05-07T06:00:27;14.27;;;3.40;;
76699;SDS011;65628;44.498;0.166;2023-05-07T06:06:01;14.03;;;4.47;;
76699;SDS011;65628;44.498;0.166;2023-05-07T06:11:33;12.20;;;3.60;;
76699;SDS011;65628;44.498;0.166;2023-05-07T06:17:06;15.03;;;3.80;;
76699;SDS011;65628;44.498;0.166;2023-05-07T06:22:38;6.13;;;3.17;;
76699;SDS011;65628;44.498;0.166;2023-05-07T06:28:11;9.27;;;3.63;;
76699;SDS011;65628;44.498;0.166;2023-05-07T06:33:43;11.40;;;3.67;;
76699;SDS011;65628;44.498;0.166;2023-05-07T06:39:16;13.30;;;3.70;;
76699;SDS011;65628;44.498;0.166;2023-05-07T06:44:49;6.73;;;3.20;;
76699;SDS011;65628;44.498;0.166;2023-05-07T06:50:22;14.20;;;4.40;;
76699;SDS011;65628;44.498;0.166;2023-05-07T06:55:54;8.20;;;3.50;;
76699;SDS011;65628;44.498;0.166;2023-05-07T07:01:28;10.37;;;3.70;;
76699;SDS011;65628;44.498;0.166;2023-05-07T07:07:00;13.17;;;3.80;;
76699;SDS011;65628;44.498;0.166;2023-05-07T07:12:33;12.40;;;4.17;;
76699;SDS011;65628;44.498;0.166;2023-05-07T07:18:06;10.93;;;3.53;;
76699;SDS011;65628;44.498;0.166;2023-05-07T07:23:38;10.43;;;4.50;;
76699;SDS011;65628;44.498;0.166;2023-05-07T07:29:10;12.53;;;4.10;;
76699;SDS011;65628;44.498;0.166;2023-05-07T07:34:43;10.27;;;4.20;;
76699;SDS011;65628;44.498;0.166;2023-05-07T07:40:15;11.80;;;4.17;;
76699;SDS011;65628;44.498;0.166;2023-05-07T07:45:48;16.77;;;4.50;;
76699;SDS011;65628;44.498;0.166;2023-05-07T07:51:20;12.20;;;4.50;;
76699;SDS011;65628;44.498;0.166;2023-05-07T07:56:53;9.67;;;3.70;;
76699;SDS011;65628;44.498;0.166;2023-05-07T08:02:25;15.03;;;3.47;;
76699;SDS011;65628;44.498;0.166;2023-05-07T08:07:58;11.87;;;3.30;;
76699;SDS011;65628;44.498;0.166;2023-05-07T08:13:29;10.77;;;3.37;;
76699;SDS011;65628;44.498;0.166;2023-05-07T08:19:03;13.00;;;3.90;;
76699;SDS011;65628;44.498;0.166;2023-05-07T08:24:36;10.13;;;3.47;;
76699;SDS011;65628;44.498;0.166;2023-05-07T08:30:08;15.20;;;3.93;;
76699;SDS011;65628;44.498;0.166;2023-05-07T08:35:41;11.47;;;2.97;;
76699;SDS011;65628;44.498;0.166;2023-05-07T08:41:13;12.70;;;3.20;;
76699;SDS011;65628;44.498;0.166;2023-05-07T08:46:48;12.10;;;3.57;;
76699;SDS011;65628;44.498;0.166;2023-05-07T08:52:21;7.67;;;2.60;;
76699;SDS011;65628;44.498;0.166;2023-05-07T08:57:53;10.70;;;3.13;;
76699;SDS011;65628;44.498;0.166;2023-05-07T09:03:25;11.47;;;3.50;;
76699;SDS011;65628;44.498;0.166;2023-05-07T09:08:58;6.37;;;2.20;;
76699;SDS011;65628;44.498;0.166;2023-05-07T09:14:30;10.07;;;3.03;;
76699;SDS011;65628;44.498;0.166;2023-05-07T09:20:03;8.97;;;2.60;;
76699;SDS011;65628;44.498;0.166;2023-05-07T09:25:34;5.23;;;2.67;;
76699;SDS011;65628;44.498;0.166;2023-05-07T09:31:06;8.43;;;3.20;;
76699;SDS011;65628;44.498;0.166;2023-05-07T09:36:39;8.43;;;3.40;;
76699;SDS011;65628;44.498;0.166;2023-05-07T09:42:12;11.03;;;3.37;;
76699;SDS011;65628;44.498;0.166;2023-05-07T09:47:45;9.00;;;2.53;;
76699;SDS011;65628;44.498;0.166;2023-05-07T09:53:17;8.50;;;2.63;;
76699;SDS011;65628;44.498;0.166;2023-05-07T09:58:50;8.23;;;2.57;;
76699;SDS011;65628;44.498;0.166;2023-05-07T10:04:23;9.73;;;3.07;;
76699;SDS011;65628;44.498;0.166;2023-05-07T10:09:55;9.67;;;3.17;;
76699;SDS011;65628;44.498;0.166;2023-05-07T10:15:27;7.07;;;2.50;;
76699;SDS011;65628;44.498;0.166;2023-05-07T10:21:01;9.03;;;3.20;;
76699;SDS011;65628;44.498;0.166;2023-05-07T10:26:31;11.50;;;3.37;;
76699;SDS011;65628;44.498;0.166;2023-05-07T10:32:05;7.40;;;2.23;;
76699;SDS011;65628;44.498;0.166;2023-05-07T10:37:37;10.17;;;2.73;;
76699;SDS011;65628;44.498;0.166;2023-05-07T10:43:10;8.03;;;2.07;;
76699;SDS011;65628;44.498;0.166;2023-05-07T10:54:19;11.37;;;2.47;;
76699;SDS011;65628;44.498;0.166;2023-05-07T10:59:49;10.17;;;2.30;;
76699;SDS011;65628;44.498;0.166;2023-05-07T11:05:21;9.47;;;2.53;;
76699;SDS011;65628;44.498;0.166;2023-05-07T11:10:56;7.93;;;1.90;;
76699;SDS011;65628;44.498;0.166;2023-05-07T11:16:28;7.77;;;2.23;;
76699;SDS011;65628;44.498;0.166;2023-05-07T11:22:01;7.77;;;2.37;;
76699;SDS011;65628;44.498;0.166;2023-05-07T11:27:33;6.80;;;2.47;;
76699;SDS011;65628;44.498;0.166;2023-05-07T11:33:06;6.67;;;1.93;;
76699;SDS011;65628;44.498;0.166;2023-05-07T11:38:37;6.97;;;1.90;;
76699;SDS011;65628;44.498;0.166;2023-05-07T11:44:10;6.63;;;2.07;;
76699;SDS011;65628;44.498;0.166;2023-05-07T11:49:45;4.47;;;1.73;;
76699;SDS011;65628;44.498;0.166;2023-05-07T11:55:17;7.23;;;2.30;;
76699;SDS011;65628;44.498;0.166;2023-05-07T12:00:49;7.73;;;2.47;;
76699;SDS011;65628;44.498;0.166;2023-05-07T12:06:21;6.67;;;2.20;;
76699;SDS011;65628;44.498;0.166;2023-05-07T12:11:54;6.93;;;1.87;;
76699;SDS011;65628;44.498;0.166;2023-05-07T12:17:27;5.23;;;2.03;;
76699;SDS011;65628;44.498;0.166;2023-05-07T12:28:36;6.83;;;1.80;;
76699;SDS011;65628;44.498;0.166;2023-05-07T12:34:05;4.37;;;1.30;;
76699;SDS011;65628;44.498;0.166;2023-05-07T12:39:37;7.37;;;2.13;;
76699;SDS011;65628;44.498;0.166;2023-05-07T12:45:09;6.73;;;2.20;;
76699;SDS011;65628;44.498;0.166;2023-05-07T12:50:41;4.27;;;1.37;;
76699;SDS011;65628;44.498;0.166;2023-05-07T12:56:15;5.63;;;1.77;;
76699;SDS011;65628;44.498;0.166;2023-05-07T13:01:46;4.70;;;1.97;;
76699;SDS011;65628;44.498;0.166;2023-05-07T13:07:20;7.87;;;2.23;;
76699;SDS011;65628;44.498;0.166;2023-05-07T13:12:54;4.63;;;1.93;;
76699;SDS011;65628;44.498;0.166;2023-05-07T13:18:29;7.37;;;1.80;;
76699;SDS011;65628;44.498;0.166;2023-05-07T13:23:59;6.63;;;1.87;;
76699;SDS011;65628;44.498;0.166;2023-05-07T13:29:32;4.43;;;1.77;;
76699;SDS011;65628;44.498;0.166;2023-05-07T13:35:07;9.50;;;1.90;;
76699;SDS011;65628;44.498;0.166;2023-05-07T13:40:39;6.37;;;1.63;;
76699;SDS011;65628;44.498;0.166;2023-05-07T13:46:12;6.87;;;1.50;;
76699;SDS011;65628;44.498;0.166;2023-05-07T13:51:44;8.20;;;2.17;;
76699;SDS011;65628;44.498;0.166;2023-05-07T13:57:17;8.23;;;2.07;;
76699;SDS011;65628;44.498;0.166;2023-05-07T14:02:48;6.10;;;1.67;;
76699;SDS011;65628;44.498;0.166;2023-05-07T14:08:22;4.33;;;1.60;;
76699;SDS011;65628;44.498;0.166;2023-05-07T14:13:53;3.80;;;1.40;;
76699;SDS011;65628;44.498;0.166;2023-05-07T14:19:24;7.37;;;1.80;;
76699;SDS011;65628;44.498;0.166;2023-05-07T14:24:57;6.20;;;1.80;;
76699;SDS011;65628;44.498;0.166;2023-05-07T14:30:30;9.47;;;2.00;;
76699;SDS011;65628;44.498;0.166;2023-05-07T14:36:04;8.33;;;2.60;;
76699;SDS011;65628;44.498;0.166;2023-05-07T14:41:35;4.83;;;1.83;;
76699;SDS011;65628;44.498;0.166;2023-05-07T14:47:07;5.20;;;1.77;;
76699;SDS011;65628;44.498;0.166;2023-05-07T14:52:40;6.23;;;2.23;;
76699;SDS011;65628;44.498;0.166;2023-05-07T14:58:12;7.50;;;2.03;;
76699;SDS011;65628;44.498;0.166;2023-05-07T15:03:45;4.77;;;1.83;;
76699;SDS011;65628;44.498;0.166;2023-05-07T15:09:19;8.97;;;1.97;;
76699;SDS011;65628;44.498;0.166;2023-05-07T15:14:52;4.60;;;1.37;;
76699;SDS011;65628;44.498;0.166;2023-05-07T15:20:25;7.03;;;2.10;;
76699;SDS011;65628;44.498;0.166;2023-05-07T15:25:58;7.40;;;2.03;;
76699;SDS011;65628;44.498;0.166;2023-05-07T15:31:31;7.63;;;2.47;;
76699;SDS011;65628;44.498;0.166;2023-05-07T15:37:05;11.27;;;2.30;;
76699;SDS011;65628;44.498;0.166;2023-05-07T15:42:38;6.60;;;1.87;;
76699;SDS011;65628;44.498;0.166;2023-05-07T15:48:10;10.40;;;2.53;;
76699;SDS011;65628;44.498;0.166;2023-05-07T15:53:44;6.97;;;2.13;;
76699;SDS011;65628;44.498;0.166;2023-05-07T15:59:16;8.03;;;1.87;;
76699;SDS011;65628;44.498;0.166;2023-05-07T16:04:49;10.90;;;2.60;;
76699;SDS011;65628;44.498;0.166;2023-05-07T16:10:21;9.10;;;2.43;;
76699;SDS011;65628;44.498;0.166;2023-05-07T16:15:55;9.50;;;2.60;;
76699;SDS011;65628;44.498;0.166;2023-05-07T16:21:28;7.63;;;2.27;;
76699;SDS011;65628;44.498;0.166;2023-05-07T16:27:00;6.67;;;2.47;;
76699;SDS011;65628;44.498;0.166;2023-05-07T16:32:34;7.90;;;2.40;;
76699;SDS011;65628;44.498;0.166;2023-05-07T16:38:09;8.83;;;2.17;;
76699;SDS011;65628;44.498;0.166;2023-05-07T16:43:38;12.70;;;2.77;;
76699;SDS011;65628;44.498;0.166;2023-05-07T16:49:11;8.87;;;1.80;;
76699;SDS011;65628;44.498;0.166;2023-05-07T16:54:44;8.87;;;2.43;;
76699;SDS011;65628;44.498;0.166;2023-05-07T17:00:17;8.53;;;2.50;;
76699;SDS011;65628;44.498;0.166;2023-05-07T17:05:50;8.27;;;2.10;;
76699;SDS011;65628;44.498;0.166;2023-05-07T17:11:23;16.73;;;3.77;;
76699;SDS011;65628;44.498;0.166;2023-05-07T17:16:55;12.30;;;2.87;;
76699;SDS011;65628;44.498;0.166;2023-05-07T17:22:29;12.37;;;2.30;;
76699;SDS011;65628;44.498;0.166;2023-05-07T17:28:01;8.03;;;2.67;;
76699;SDS011;65628;44.498;0.166;2023-05-07T17:33:34;9.00;;;2.40;;
76699;SDS011;65628;44.498;0.166;2023-05-07T17:39:07;8.53;;;2.37;;
76699;SDS011;65628;44.498;0.166;2023-05-07T17:44:40;10.33;;;2.20;;
76699;SDS011;65628;44.498;0.166;2023-05-07T17:50:12;12.73;;;2.77;;
76699;SDS011;65628;44.498;0.166;2023-05-07T17:55:45;10.53;;;3.00;;
76699;SDS011;65628;44.498;0.166;2023-05-07T18:01:17;8.50;;;2.17;;
76699;SDS011;65628;44.498;0.166;2023-05-07T18:06:49;11.27;;;2.73;;
76699;SDS011;65628;44.498;0.166;2023-05-07T18:12:21;6.57;;;1.90;;
76699;SDS011;65628;44.498;0.166;2023-05-07T18:17:54;12.53;;;2.80;;
76699;SDS011;65628;44.498;0.166;2023-05-07T18:23:28;9.70;;;2.93;;
76699;SDS011;65628;44.498;0.166;2023-05-07T18:29:00;12.63;;;2.43;;
76699;SDS011;65628;44.498;0.166;2023-05-07T18:34:33;9.83;;;2.60;;
76699;SDS011;65628;44.498;0.166;2023-05-07T18:40:06;6.53;;;1.63;;
76699;SDS011;65628;44.498;0.166;2023-05-07T18:45:39;14.87;;;3.00;;
76699;SDS011;65628;44.498;0.166;2023-05-07T18:51:12;10.87;;;2.57;;
76699;SDS011;65628;44.498;0.166;2023-05-07T18:56:45;8.33;;;2.47;;
76699;SDS011;65628;44.498;0.166;2023-05-07T19:02:17;10.50;;;2.83;;
76699;SDS011;65628;44.498;0.166;2023-05-07T19:07:50;11.17;;;2.90;;
76699;SDS011;65628;44.498;0.166;2023-05-07T19:13:21;10.07;;;2.50;;
76699;SDS011;65628;44.498;0.166;2023-05-07T19:18:52;10.10;;;2.23;;
76699;SDS011;65628;44.498;0.166;2023-05-07T19:24:24;9.83;;;2.27;;
76699;SDS011;65628;44.498;0.166;2023-05-07T19:29:56;8.60;;;2.70;;
76699;SDS011;65628;44.498;0.166;2023-05-07T19:35:29;6.60;;;2.07;;
76699;SDS011;65628;44.498;0.166;2023-05-07T19:41:02;8.73;;;2.00;;
76699;SDS011;65628;44.498;0.166;2023-05-07T19:46:35;14.37;;;2.00;;
76699;SDS011;65628;44.498;0.166;2023-05-07T19:52:08;6.87;;;1.70;;
76699;SDS011;65628;44.498;0.166;2023-05-07T19:57:40;13.07;;;2.67;;
76699;SDS011;65628;44.498;0.166;2023-05-07T20:03:17;14.47;;;2.80;;
76699;SDS011;65628;44.498;0.166;2023-05-07T20:08:45;8.63;;;1.60;;
76699;SDS011;65628;44.498;0.166;2023-05-07T20:14:18;5.73;;;2.13;;
76699;SDS011;65628;44.498;0.166;2023-05-07T20:19:49;7.27;;;1.47;;
76699;SDS011;65628;44.498;0.166;2023-05-07T20:25:21;5.97;;;1.50;;
76699;SDS011;65628;44.498;0.166;2023-05-07T20:30:54;6.83;;;1.67;;
76699;SDS011;65628;44.498;0.166;2023-05-07T20:36:25;9.47;;;1.77;;
76699;SDS011;65628;44.498;0.166;2023-05-07T20:41:59;5.47;;;1.40;;
76699;SDS011;65628;44.498;0.166;2023-05-07T20:47:32;6.50;;;1.40;;
76699;SDS011;65628;44.498;0.166;2023-05-07T20:53:04;7.13;;;1.40;;
76699;SDS011;65628;44.498;0.166;2023-05-07T20:58:37;6.93;;;1.57;;
76699;SDS011;65628;44.498;0.166;2023-05-07T21:04:10;5.87;;;1.57;;
76699;SDS011;65628;44.498;0.166;2023-05-07T21:09:44;7.83;;;1.53;;
76699;SDS011;65628;44.498;0.166;2023-05-07T21:15:17;7.00;;;1.47;;
76699;SDS011;65628;44.498;0.166;2023-05-07T21:20:50;5.73;;;1.60;;
76699;SDS011;65628;44.498;0.166;2023-05-07T21:26:21;5.63;;;1.80;;
76699;SDS011;65628;44.498;0.166;2023-05-07T21:31:55;4.93;;;1.17;;
76699;SDS011;65628;44.498;0.166;2023-05-07T21:37:29;4.43;;;1.40;;
76699;SDS011;65628;44.498;0.166;2023-05-07T21:43:02;5.20;;;1.37;;
76699;SDS011;65628;44.498;0.166;2023-05-07T21:48:33;7.73;;;1.57;;
76699;SDS011;65628;44.498;0.166;2023-05-07T21:54:07;5.90;;;1.27;;
76699;SDS011;65628;44.498;0.166;2023-05-07T21:59:40;3.57;;;1.10;;
76699;SDS011;65628;44.498;0.166;2023-05-07T22:05:13;7.77;;;2.07;;
76699;SDS011;65628;44.498;0.166;2023-05-07T22:10:45;6.93;;;1.60;;
76699;SDS011;65628;44.498;0.166;2023-05-07T22:16:18;3.40;;;1.13;;
76699;SDS011;65628;44.498;0.166;2023-05-07T22:21:50;3.97;;;1.50;;
76699;SDS011;65628;44.498;0.166;2023-05-07T22:27:24;7.67;;;1.77;;
76699;SDS011;65628;44.498;0.166;2023-05-07T22:32:56;4.00;;;1.40;;
76699;SDS011;65628;44.498;0.166;2023-05-07T22:38:29;8.53;;;2.00;;
76699;SDS011;65628;44.498;0.166;2023-05-07T22:44:03;8.43;;;1.73;;
76699;SDS011;65628;44.498;0.166;2023-05-07T22:49:35;10.33;;;2.07;;
76699;SDS011;65628;44.498;0.166;2023-05-07T22:55:09;7.27;;;1.73;;
76699;SDS011;65628;44.498;0.166;2023-05-07T23:00:43;5.70;;;1.83;;
76699;SDS011;65628;44.498;0.166;2023-05-07T23:06:15;5.53;;;1.53;;
76699;SDS011;65628;44.498;0.166;2023-05-07T23:11:49;7.40;;;1.70;;
76699;SDS011;65628;44.498;0.166;2023-05-07T23:17:22;4.70;;;1.13;;
76699;SDS011;65628;44.498;0.166;2023-05-07T23:22:56;9.17;;;1.77;;
76699;SDS011;65628;44.498;0.166;2023-05-07T23:28:27;2.67;;;1.30;;
76699;SDS011;65628;44.498;0.166;2023-05-07T23:33:59;9.27;;;1.87;;
76699;SDS011;65628;44.498;0.166;2023-05-07T23:39:32;5.57;;;1.30;;
76699;SDS011;65628;44.498;0.166;2023-05-07T23:45:05;8.30;;;1.50;;
76699;SDS011;65628;44.498;0.166;2023-05-07T23:50:37;8.53;;;1.97;;
76699;SDS011;65628;44.498;0.166;2023-05-07T23:56:11;5.60;;;2.10;;
